Time;durP1;ratioP1;P1;durP2;ratioP2;P2;SDS_P1;SDS_P2;PMS_P1;PMS_P2;Temp;Humidity;BMP_temperature;BMP_pressure;BME280_temperature;BME280_humidity;BME280_pressure;Samples;Min_cycle;Max_cycle;Signal;HPM_P1;HPM_P2
2021/03/27 00:01:31;;;;;;;8.33;5.90;;;12.40;98.60;;;;;;5051264;28;21009;-88
2021/03/27 00:04:04;;;;;;;6.77;6.17;;;12.40;98.70;;;;;;5058228;28;20621;-88
2021/03/27 00:06:37;;;;;;;9.37;5.67;;;12.30;99.80;;;;;;5055134;28;21007;-88
2021/03/27 00:09:12;;;;;;;7.20;6.57;;;12.30;99.90;;;;;;5054234;28;20622;-88
2021/03/27 00:11:44;;;;;;;6.57;6.00;;;12.20;99.90;;;;;;5052945;28;20610;-89
2021/03/27 00:14:18;;;;;;;7.07;6.37;;;12.20;99.90;;;;;;5057875;28;20621;-88
2021/03/27 00:16:52;;;;;;;7.33;6.37;;;12.10;99.90;;;;;;5056889;28;20616;-88
2021/03/27 00:19:25;;;;;;;5.93;5.43;;;12.10;99.90;;;;;;5055833;28;20651;-89
2021/03/27 00:21:55;;;;;;;5.63;5.13;;;12.00;99.90;;;;;;5053256;28;21141;-87
2021/03/27 00:24:26;;;;;;;7.07;6.33;;;12.00;99.90;;;;;;5050168;28;20662;-88
2021/03/27 00:26:57;;;;;;;10.80;6.60;;;11.90;99.90;;;;;;5055435;28;20622;-88
2021/03/27 00:29:30;;;;;;;6.57;5.63;;;12.00;99.90;;;;;;5048905;28;21097;-88
2021/03/27 00:32:01;;;;;;;8.53;5.50;;;11.90;99.90;;;;;;5051824;28;20747;-88
2021/03/27 00:34:31;;;;;;;7.60;5.43;;;11.80;99.90;;;;;;5048688;28;21120;-87
2021/03/27 00:37:01;;;;;;;5.93;5.10;;;11.90;99.90;;;;;;5049217;28;21487;-87
2021/03/27 00:39:33;;;;;;;5.70;5.13;;;11.80;99.90;;;;;;5051289;28;20625;-88
2021/03/27 00:42:04;;;;;;;5.63;5.13;;;11.80;99.90;;;;;;5051159;28;20638;-88
2021/03/27 00:44:35;;;;;;;4.87;4.40;;;11.70;99.90;;;;;;5050488;28;21104;-87
2021/03/27 00:47:03;;;;;;;5.27;4.87;;;11.70;99.90;;;;;;5044257;28;20625;-88
2021/03/27 00:49:35;;;;;;;4.93;4.30;;;11.70;99.90;;;;;;5048911;28;20693;-88
2021/03/27 00:52:05;;;;;;;4.60;4.20;;;11.60;99.90;;;;;;5045231;28;21133;-87
2021/03/27 00:54:36;;;;;;;5.10;4.60;;;11.50;99.90;;;;;;5048373;28;20634;-87
2021/03/27 00:57:08;;;;;;;6.80;5.27;;;11.40;99.90;;;;;;5048306;28;20625;-87
2021/03/27 00:59:38;;;;;;;5.10;4.60;;;11.40;99.90;;;;;;5044119;28;20652;-88
2021/03/27 01:02:14;;;;;;;6.00;5.10;;;11.40;99.90;;;;;;5043759;28;20691;-88
2021/03/27 01:04:43;;;;;;;5.20;4.70;;;11.30;99.90;;;;;;5050426;28;20749;-88
2021/03/27 01:07:12;;;;;;;5.77;4.97;;;11.20;99.90;;;;;;5050307;28;20704;-88
2021/03/27 01:09:46;;;;;;;7.00;4.60;;;11.20;99.90;;;;;;5050669;28;20654;-88
2021/03/27 01:12:16;;;;;;;5.57;5.00;;;11.20;99.90;;;;;;5049766;28;20617;-88
2021/03/27 01:14:46;;;;;;;5.23;4.73;;;11.10;99.90;;;;;;5049681;28;20747;-88
2021/03/27 01:17:17;;;;;;;5.70;5.13;;;11.00;99.90;;;;;;5051615;28;20736;-88
2021/03/27 01:19:54;;;;;;;5.00;4.50;;;11.00;99.90;;;;;;5052794;28;20657;-89
2021/03/27 01:22:21;;;;;;;6.33;5.67;;;11.00;99.90;;;;;;5048916;28;20625;-87
2021/03/27 01:24:48;;;;;;;5.47;4.97;;;10.90;99.90;;;;;;5051570;28;20673;-87
2021/03/27 01:27:23;;;;;;;5.30;4.80;;;10.90;99.90;;;;;;5053127;28;20640;-88
2021/03/27 01:29:57;;;;;;;5.33;4.83;;;10.80;99.90;;;;;;5047627;28;20649;-88
2021/03/27 01:32:30;;;;;;;6.10;5.60;;;10.80;99.90;;;;;;5045768;28;20610;-89
2021/03/27 01:35:03;;;;;;;5.30;4.90;;;10.80;99.90;;;;;;5047782;28;20972;-89
2021/03/27 01:37:44;;;;;;;5.63;5.13;;;10.90;99.90;;;;;;5046291;28;20622;-87
2021/03/27 01:40:27;;;;;;;5.90;5.10;;;10.90;99.90;;;;;;5047483;28;20661;-88
2021/03/27 01:43:04;;;;;;;5.13;4.73;;;10.80;99.90;;;;;;5042175;28;20608;-88
2021/03/27 01:45:50;;;;;;;8.40;5.60;;;10.90;99.90;;;;;;5046006;28;20652;-88
2021/03/27 01:48:24;;;;;;;5.23;4.83;;;10.80;99.90;;;;;;5050053;28;20644;-87
2021/03/27 01:50:56;;;;;;;5.70;5.20;;;10.80;99.90;;;;;;5052561;28;20613;-88
2021/03/27 01:53:33;;;;;;;5.50;4.97;;;10.80;99.90;;;;;;5057220;28;20975;-88
2021/03/27 01:56:24;;;;;;;5.03;4.53;;;10.80;99.90;;;;;;5049518;28;20618;-88
2021/03/27 01:58:57;;;;;;;5.30;4.80;;;10.80;99.90;;;;;;5042358;28;21060;-87
2021/03/27 02:01:32;;;;;;;5.73;5.00;;;10.90;99.90;;;;;;5041637;28;20862;-88
2021/03/27 02:04:05;;;;;;;5.83;5.27;;;10.80;99.90;;;;;;5045855;28;20983;-88
2021/03/27 02:06:40;;;;;;;5.00;4.60;;;10.70;99.90;;;;;;5058461;28;20629;-88
2021/03/27 02:09:15;;;;;;;5.97;5.47;;;10.60;99.90;;;;;;5072816;28;20629;-88
2021/03/27 02:11:53;;;;;;;6.40;5.80;;;10.60;99.90;;;;;;5049691;28;20804;-87
2021/03/27 02:14:25;;;;;;;7.70;4.50;;;10.50;99.90;;;;;;5049937;28;22119;-88
2021/03/27 02:16:55;;;;;;;5.70;5.20;;;10.60;99.90;;;;;;5047345;28;20626;-88
2021/03/27 02:19:47;;;;;;;5.63;5.10;;;10.60;99.90;;;;;;5046963;28;20637;-89
2021/03/27 02:22:22;;;;;;;5.77;5.17;;;10.60;99.90;;;;;;5046734;28;20603;-88
2021/03/27 02:25:16;;;;;;;5.40;4.90;;;10.50;99.90;;;;;;5047957;28;20700;-89
2021/03/27 02:27:49;;;;;;;5.53;5.03;;;10.50;99.90;;;;;;5047743;28;20605;-88
2021/03/27 02:30:21;;;;;;;6.57;5.20;;;10.40;99.90;;;;;;5046770;28;21019;-88
2021/03/27 02:33:36;;;;;;;5.77;5.13;;;10.40;99.90;;;;;;5041805;28;20660;-88
2021/03/27 02:36:18;;;;;;;5.80;5.03;;;10.40;99.90;;;;;;4982520;28;20636;-88
2021/03/27 02:38:59;;;;;;;5.90;5.27;;;10.40;99.90;;;;;;5038773;28;20711;-87
2021/03/27 02:41:43;;;;;;;5.90;5.40;;;10.30;99.90;;;;;;5045270;28;20637;-87
2021/03/27 02:44:18;;;;;;;5.73;5.23;;;10.30;99.90;;;;;;5050193;28;21122;-88
2021/03/27 02:46:47;;;;;;;6.13;5.63;;;10.30;99.90;;;;;;5049449;28;20641;-88
2021/03/27 02:49:35;;;;;;;6.13;5.63;;;10.20;99.90;;;;;;5052928;28;20848;-88
2021/03/27 02:52:14;;;;;;;6.77;5.60;;;10.20;99.90;;;;;;5046861;28;20636;-88
2021/03/27 02:54:52;;;;;;;6.07;5.60;;;10.20;99.90;;;;;;5046293;28;21222;-88
2021/03/27 02:57:24;;;;;;;6.23;5.47;;;10.20;99.90;;;;;;5047989;28;20617;-87
2021/03/27 02:59:58;;;;;;;6.37;5.87;;;10.10;99.90;;;;;;5045310;28;20665;-87
2021/03/27 03:02:33;;;;;;;6.27;5.67;;;10.10;99.90;;;;;;5050081;28;20629;-88
2021/03/27 03:05:08;;;;;;;6.00;5.50;;;10.00;99.90;;;;;;5050529;28;20669;-88
2021/03/27 03:07:45;;;;;;;6.83;6.33;;;10.00;99.90;;;;;;5052048;28;20628;-87
2021/03/27 03:10:22;;;;;;;5.97;5.37;;;10.00;99.90;;;;;;5049865;28;20665;-88
2021/03/27 03:12:59;;;;;;;9.43;4.93;;;9.90;99.90;;;;;;5045388;28;20644;-88
2021/03/27 03:15:42;;;;;;;6.40;5.10;;;9.90;99.90;;;;;;5047027;28;20605;-87
2021/03/27 03:18:18;;;;;;;5.90;5.33;;;9.90;99.90;;;;;;5046421;28;20632;-89
2021/03/27 03:20:49;;;;;;;5.00;4.60;;;9.90;99.90;;;;;;5048345;28;20665;-87
2021/03/27 03:23:28;;;;;;;5.17;4.67;;;9.80;99.90;;;;;;5047675;28;20684;-86
2021/03/27 03:26:04;;;;;;;5.63;4.53;;;9.80;99.90;;;;;;5048479;28;20735;-88
2021/03/27 03:28:40;;;;;;;6.27;4.20;;;9.90;99.90;;;;;;5048937;28;20641;-87
2021/03/27 03:31:15;;;;;;;4.57;4.10;;;9.80;99.90;;;;;;5048615;28;20730;-87
2021/03/27 03:34:03;;;;;;;4.97;4.57;;;9.90;99.90;;;;;;5051353;28;20638;-88
2021/03/27 03:36:38;;;;;;;4.50;4.10;;;9.80;99.90;;;;;;5051197;28;20622;-86
2021/03/27 03:39:27;;;;;;;4.07;3.80;;;9.90;99.90;;;;;;5052514;28;21188;-87
2021/03/27 03:41:59;;;;;;;4.20;3.90;;;9.90;99.90;;;;;;5045529;28;20632;-87
2021/03/27 03:44:54;;;;;;;4.20;3.83;;;9.80;99.90;;;;;;5049215;28;20632;-88
2021/03/27 03:47:32;;;;;;;4.53;4.03;;;9.80;99.90;;;;;;5049734;28;20622;-87
2021/03/27 03:50:13;;;;;;;4.53;4.13;;;9.90;99.90;;;;;;5049700;28;20649;-88
2021/03/27 03:53:06;;;;;;;3.77;3.47;;;9.90;99.90;;;;;;5051503;28;20634;-88
2021/03/27 03:55:42;;;;;;;4.10;3.80;;;9.90;99.90;;;;;;5045546;28;20683;-88
2021/03/27 03:58:28;;;;;;;3.13;2.83;;;9.90;99.90;;;;;;5049849;28;20618;-88
2021/03/27 04:01:02;;;;;;;3.20;3.00;;;9.90;99.90;;;;;;5049643;28;20661;-89
2021/03/27 04:03:37;;;;;;;2.93;2.20;;;9.70;99.90;;;;;;5048277;28;21188;-89
2021/03/27 04:06:10;;;;;;;1.60;1.50;;;9.30;99.90;;;;;;5050956;28;20652;-89
2021/03/27 04:08:45;;;;;;;1.40;1.30;;;8.80;99.90;;;;;;5044115;28;20594;-88
2021/03/27 04:11:35;;;;;;;1.30;1.20;;;8.70;99.90;;;;;;5044361;28;20649;-88
2021/03/27 04:14:05;;;;;;;1.77;1.10;;;8.50;99.90;;;;;;5050367;28;21226;-90
2021/03/27 04:16:34;;;;;;;1.70;1.07;;;8.50;99.90;;;;;;5059818;28;20700;-88
2021/03/27 04:19:09;;;;;;;1.57;1.20;;;8.50;99.90;;;;;;5053981;28;20625;-88
2021/03/27 04:21:45;;;;;;;0.97;0.90;;;8.40;99.90;;;;;;5049514;28;20695;-87
2021/03/27 04:24:19;;;;;;;1.07;0.70;;;8.30;99.90;;;;;;5050846;28;20660;-89
2021/03/27 04:26:54;;;;;;;0.60;0.50;;;8.20;99.90;;;;;;5049718;28;20641;-88
2021/03/27 04:29:35;;;;;;;0.87;0.87;;;8.20;99.90;;;;;;5066861;28;20713;-88
2021/03/27 04:32:38;;;;;;;0.90;0.80;;;8.10;99.90;;;;;;5074887;28;20596;-89
2021/03/27 04:35:26;;;;;;;2.10;0.67;;;8.10;99.90;;;;;;5069344;28;20628;-89
2021/03/27 04:38:14;;;;;;;1.03;0.93;;;8.00;99.90;;;;;;5065162;28;20633;-89
2021/03/27 04:40:46;;;;;;;1.90;1.10;;;8.00;99.90;;;;;;5051690;28;20695;-89
2021/03/27 04:43:20;;;;;;;1.53;1.07;;;8.00;99.90;;;;;;5049571;28;20582;-89
2021/03/27 04:45:50;;;;;;;1.60;0.90;;;8.00;99.90;;;;;;5047327;28;20661;-89
2021/03/27 04:48:23;;;;;;;1.17;1.07;;;8.00;99.90;;;;;;5051010;28;20629;-89
2021/03/27 04:51:20;;;;;;;1.33;0.77;;;8.00;99.90;;;;;;5048022;28;20712;-89
2021/03/27 04:53:53;;;;;;;1.23;0.60;;;7.90;99.90;;;;;;5034467;28;20626;-89
2021/03/27 04:56:29;;;;;;;0.60;0.60;;;7.90;99.90;;;;;;5045647;28;21056;-88
2021/03/27 04:59:14;;;;;;;1.53;0.70;;;8.00;99.90;;;;;;5043138;28;21118;-88
2021/03/27 05:01:48;;;;;;;0.83;0.70;;;8.00;99.90;;;;;;5041233;28;20634;-89
2021/03/27 05:04:17;;;;;;;0.60;0.50;;;8.00;99.90;;;;;;5046700;28;20975;-88
2021/03/27 05:06:49;;;;;;;1.23;1.07;;;7.90;99.90;;;;;;5045806;28;20620;-88
2021/03/27 05:09:44;;;;;;;0.73;0.60;;;7.90;99.90;;;;;;5055430;28;20629;-89
2021/03/27 05:12:15;;;;;;;1.00;0.53;;;7.90;99.90;;;;;;5024160;28;20667;-87
2021/03/27 05:14:54;;;;;;;1.03;0.87;;;7.80;99.90;;;;;;5047282;28;20672;-89
2021/03/27 05:17:30;;;;;;;0.77;0.70;;;7.80;99.90;;;;;;5048516;28;20951;-88
2021/03/27 05:20:06;;;;;;;1.50;0.60;;;7.80;99.90;;;;;;5042376;28;20711;-89
2021/03/27 05:22:49;;;;;;;1.27;0.60;;;7.70;99.90;;;;;;5044803;28;21044;-89
2021/03/27 05:25:28;;;;;;;0.70;0.70;;;7.70;99.90;;;;;;5046006;28;20665;-90
2021/03/27 05:28:05;;;;;;;2.00;0.70;;;7.70;99.90;;;;;;5053734;28;20683;-91
2021/03/27 05:30:45;;;;;;;0.50;0.50;;;7.60;99.90;;;;;;5049372;28;20636;-89
2021/03/27 05:33:32;;;;;;;1.20;0.50;;;7.70;99.90;;;;;;5046546;28;20645;-88
2021/03/27 05:36:26;;;;;;;0.60;0.60;;;7.70;99.90;;;;;;5049114;28;20638;-88
2021/03/27 05:38:57;;;;;;;0.73;0.63;;;7.60;99.90;;;;;;5048759;28;20668;-88
2021/03/27 05:41:57;;;;;;;0.80;0.80;;;7.60;99.90;;;;;;5043514;28;20634;-89
2021/03/27 05:45:04;;;;;;;0.60;0.53;;;7.60;99.90;;;;;;5004414;28;20626;-88
2021/03/27 05:48:25;;;;;;;1.33;0.50;;;7.60;99.90;;;;;;5040549;28;20626;-89
2021/03/27 05:51:28;;;;;;;0.63;0.63;;;7.60;99.90;;;;;;5040468;28;20996;-88
2021/03/27 05:54:10;;;;;;;0.70;0.50;;;7.60;99.90;;;;;;5038619;28;20644;-88
2021/03/27 05:57:13;;;;;;;0.50;0.50;;;7.60;99.90;;;;;;5041121;28;20626;-88
2021/03/27 06:00:18;;;;;;;1.10;0.80;;;7.60;99.90;;;;;;5044817;28;20648;-89
2021/03/27 06:03:11;;;;;;;0.70;0.50;;;7.60;99.90;;;;;;5033053;28;20730;-88
2021/03/27 06:06:03;;;;;;;0.70;0.70;;;7.60;99.90;;;;;;5051462;28;20968;-90
2021/03/27 06:08:43;;;;;;;0.70;0.70;;;7.60;99.90;;;;;;5054203;28;20686;-88
2021/03/27 06:11:33;;;;;;;1.00;0.50;;;7.50;99.90;;;;;;5043929;28;20630;-87
2021/03/27 06:14:30;;;;;;;1.17;0.77;;;7.50;99.90;;;;;;5042328;28;20630;-88
2021/03/27 06:17:16;;;;;;;0.50;0.40;;;7.60;99.90;;;;;;5044140;28;21132;-87
2021/03/27 06:20:04;;;;;;;1.10;0.57;;;7.50;99.90;;;;;;5040145;28;20625;-88
2021/03/27 06:23:00;;;;;;;1.87;0.70;;;7.50;99.90;;;;;;5044299;28;20638;-88
2021/03/27 06:25:51;;;;;;;1.00;0.70;;;7.50;99.90;;;;;;5048181;28;20665;-88
2021/03/27 06:28:46;;;;;;;0.53;0.40;;;7.60;99.90;;;;;;5047592;28;20610;-88
2021/03/27 06:31:48;;;;;;;1.10;0.40;;;7.80;99.90;;;;;;5045993;28;21037;-88
2021/03/27 06:34:54;;;;;;;2.40;0.67;;;7.80;99.90;;;;;;5047027;28;21188;-88
2021/03/27 06:37:48;;;;;;;1.23;0.80;;;7.80;99.90;;;;;;5043317;28;20744;-88
2021/03/27 06:40:51;;;;;;;1.87;1.10;;;7.70;99.90;;;;;;5055095;28;20629;-87
2021/03/27 06:43:34;;;;;;;1.10;1.00;;;7.70;99.90;;;;;;5034535;28;20708;-87
2021/03/27 06:46:29;;;;;;;1.40;0.73;;;7.80;99.90;;;;;;5046684;28;20655;-88
2021/03/27 06:49:33;;;;;;;3.47;0.70;;;7.50;99.90;;;;;;5039469;28;20629;-88
2021/03/27 06:52:34;;;;;;;1.37;0.80;;;7.50;99.90;;;;;;5011047;28;20657;-88
2021/03/27 06:55:36;;;;;;;1.20;0.90;;;7.40;99.90;;;;;;5048217;28;20601;-89
2021/03/27 06:58:50;;;;;;;2.20;0.70;;;7.30;99.90;;;;;;5038678;28;20637;-88
2021/03/27 07:01:50;;;;;;;1.97;1.10;;;7.40;99.90;;;;;;5002462;28;20653;-88
2021/03/27 07:05:06;;;;;;;1.20;0.73;;;7.30;99.90;;;;;;5043879;28;20630;-88
2021/03/27 07:07:55;;;;;;;1.00;0.70;;;7.50;99.90;;;;;;5044629;28;20610;-88
2021/03/27 07:10:56;;;;;;;4.10;1.10;;;7.60;99.90;;;;;;5036202;28;20621;-88
2021/03/27 07:13:53;;;;;;;1.70;1.30;;;7.60;99.90;;;;;;5052137;28;20670;-87
2021/03/27 07:16:36;;;;;;;3.10;1.10;;;7.60;99.90;;;;;;5049488;28;20628;-87
2021/03/27 07:19:34;;;;;;;1.57;0.97;;;7.40;99.90;;;;;;5043556;28;20674;-88
2021/03/27 07:22:15;;;;;;;2.33;0.80;;;7.50;99.90;;;;;;5049449;28;21088;-88
2021/03/27 07:24:58;;;;;;;1.13;0.90;;;7.70;99.90;;;;;;5039712;28;20605;-88
2021/03/27 07:28:07;;;;;;;1.40;0.70;;;7.90;99.90;;;;;;5037192;28;20633;-89
2021/03/27 07:30:46;;;;;;;2.30;1.00;;;8.00;99.90;;;;;;5003890;28;20686;-87
2021/03/27 07:33:35;;;;;;;1.00;0.77;;;8.00;99.90;;;;;;5049237;28;20657;-87
2021/03/27 07:36:42;;;;;;;0.90;0.60;;;8.30;99.70;;;;;;5046752;28;20982;-89
2021/03/27 07:39:33;;;;;;;2.10;0.73;;;8.50;99.70;;;;;;5038641;28;20634;-87
2021/03/27 07:42:24;;;;;;;1.70;0.73;;;8.70;98.80;;;;;;5045427;28;20660;-88
2021/03/27 07:45:00;;;;;;;0.70;0.70;;;8.40;97.80;;;;;;5048121;28;20923;-88
2021/03/27 07:47:58;;;;;;;2.13;0.63;;;8.30;98.90;;;;;;5047352;28;20630;-88
2021/03/27 07:50:45;;;;;;;1.80;0.90;;;8.10;98.60;;;;;;5044669;28;21171;-88
2021/03/27 07:53:53;;;;;;;1.60;0.70;;;8.10;96.90;;;;;;5045974;28;21302;-88
2021/03/27 07:56:46;;;;;;;1.47;0.70;;;8.20;97.70;;;;;;5038954;28;20636;-87
2021/03/27 07:59:40;;;;;;;2.60;0.77;;;8.40;96.70;;;;;;5049651;28;21040;-89
2021/03/27 08:03:00;;;;;;;2.00;0.60;;;8.50;96.50;;;;;;5047071;28;20665;-88
2021/03/27 08:05:49;;;;;;;3.63;0.77;;;8.50;96.10;;;;;;5051338;28;20660;-88
2021/03/27 08:08:52;;;;;;;5.37;1.63;;;8.60;95.80;;;;;;5058968;28;20641;-87
2021/03/27 08:11:31;;;;;;;0.97;0.70;;;8.80;95.90;;;;;;5039349;28;20725;-88
2021/03/27 08:14:21;;;;;;;1.60;0.70;;;8.80;95.80;;;;;;5050343;28;20626;-88
2021/03/27 08:17:12;;;;;;;1.47;0.70;;;8.90;95.40;;;;;;5047613;28;20638;-88
2021/03/27 08:19:49;;;;;;;2.20;0.70;;;8.90;95.10;;;;;;5039027;28;20653;-89
2021/03/27 08:22:42;;;;;;;1.40;0.73;;;8.90;95.60;;;;;;5044902;28;20661;-89
2021/03/27 08:25:15;;;;;;;1.50;1.00;;;9.30;95.40;;;;;;5040509;28;20654;-88
2021/03/27 08:28:17;;;;;;;1.10;0.70;;;9.30;95.10;;;;;;5051239;28;21082;-88
2021/03/27 08:31:27;;;;;;;2.40;1.23;;;9.20;95.30;;;;;;5042875;28;20605;-88
2021/03/27 08:34:16;;;;;;;1.63;0.73;;;9.10;95.70;;;;;;5050262;28;20663;-89
2021/03/27 08:37:18;;;;;;;4.53;0.90;;;9.10;95.30;;;;;;5047688;28;20659;-88
2021/03/27 08:40:18;;;;;;;4.03;1.40;;;8.90;94.90;;;;;;5046271;28;20618;-89
2021/03/27 08:43:11;;;;;;;2.73;1.30;;;8.80;95.70;;;;;;5047011;28;20633;-89
2021/03/27 08:46:08;;;;;;;1.27;0.57;;;8.60;94.70;;;;;;5041753;28;20684;-88
2021/03/27 08:49:16;;;;;;;0.97;0.70;;;8.60;93.10;;;;;;5048668;28;20579;-90
2021/03/27 08:52:04;;;;;;;1.57;0.80;;;8.60;92.80;;;;;;5055443;28;20671;-88
2021/03/27 08:55:01;;;;;;;1.37;0.73;;;8.80;93.40;;;;;;5047167;28;21224;-89
2021/03/27 08:57:54;;;;;;;0.63;0.63;;;8.80;91.60;;;;;;5049437;28;20679;-90
2021/03/27 09:00:54;;;;;;;1.87;0.70;;;8.60;87.60;;;;;;5039227;28;20737;-88
2021/03/27 09:03:58;;;;;;;1.00;0.50;;;8.70;88.60;;;;;;5027638;28;20708;-88
2021/03/27 09:06:45;;;;;;;2.73;1.60;;;8.70;88.20;;;;;;5045784;28;20676;-89
2021/03/27 09:09:52;;;;;;;3.20;1.60;;;8.70;88.20;;;;;;5043208;28;21013;-88
2021/03/27 09:13:01;;;;;;;14.33;4.10;;;9.00;89.20;;;;;;5010822;28;20709;-90
2021/03/27 09:15:56;;;;;;;2.37;1.87;;;9.60;88.20;;;;;;5034062;28;21028;-89
2021/03/27 09:18:45;;;;;;;2.20;1.27;;;9.70;84.00;;;;;;5048446;28;20618;-89
2021/03/27 09:21:30;;;;;;;2.00;0.60;;;9.70;80.90;;;;;;5049723;28;20732;-89
2021/03/27 09:24:21;;;;;;;4.20;1.03;;;9.60;78.50;;;;;;5042247;28;20633;-89
2021/03/27 09:27:22;;;;;;;1.37;0.93;;;9.90;80.20;;;;;;5050712;28;20656;-89
2021/03/27 09:30:07;;;;;;;4.10;1.53;;;10.10;77.00;;;;;;5046696;28;20648;-89
2021/03/27 09:32:54;;;;;;;2.40;1.43;;;10.30;80.60;;;;;;5044521;28;20644;-89
2021/03/27 09:35:46;;;;;;;2.20;0.90;;;10.30;78.80;;;;;;5044872;28;20638;-89
2021/03/27 09:38:27;;;;;;;1.80;0.93;;;10.20;77.80;;;;;;5048224;28;20630;-89
2021/03/27 09:41:14;;;;;;;1.17;0.77;;;10.60;78.40;;;;;;5048263;28;21005;-89
2021/03/27 09:44:02;;;;;;;3.10;1.40;;;10.50;79.30;;;;;;5047527;28;20654;-89
2021/03/27 09:46:38;;;;;;;2.20;0.83;;;10.60;78.20;;;;;;5049989;28;20688;-90
2021/03/27 09:49:19;;;;;;;2.33;0.80;;;10.50;75.80;;;;;;5059680;28;20700;-91
2021/03/27 09:52:16;;;;;;;1.50;1.00;;;10.60;76.40;;;;;;5057623;28;20672;-89
2021/03/27 09:54:47;;;;;;;1.13;0.60;;;10.60;75.80;;;;;;5053317;28;20626;-90
2021/03/27 09:57:27;;;;;;;1.80;1.17;;;10.70;77.10;;;;;;5057992;28;20897;-91
2021/03/27 10:00:11;;;;;;;1.53;0.97;;;11.10;77.50;;;;;;5058846;28;20832;-89
2021/03/27 10:02:41;;;;;;;1.07;0.60;;;10.90;76.30;;;;;;5055202;28;20735;-90
2021/03/27 10:05:31;;;;;;;3.30;0.90;;;10.90;77.80;;;;;;5056519;28;20747;-89
2021/03/27 10:08:12;;;;;;;2.30;0.70;;;11.10;74.00;;;;;;5059075;28;20625;-89
2021/03/27 10:10:46;;;;;;;3.40;0.80;;;11.30;72.70;;;;;;5058155;28;20622;-89
2021/03/27 10:13:44;;;;;;;4.37;0.60;;;11.40;71.00;;;;;;5061856;28;20637;-89
2021/03/27 10:16:13;;;;;;;2.13;0.80;;;11.20;69.10;;;;;;5068291;28;20641;-89
2021/03/27 10:18:44;;;;;;;3.97;0.80;;;10.90;69.60;;;;;;5072585;28;20622;-89
2021/03/27 10:21:27;;;;;;;1.27;0.50;;;10.70;70.20;;;;;;5070078;28;20598;-90
2021/03/27 10:23:59;;;;;;;1.17;0.67;;;11.30;70.60;;;;;;5074878;28;20636;-89
2021/03/27 10:26:34;;;;;;;1.90;0.63;;;10.70;69.00;;;;;;5068478;28;20678;-88
2021/03/27 10:29:34;;;;;;;1.20;0.50;;;11.00;71.40;;;;;;5069396;28;20614;-89
2021/03/27 10:32:16;;;;;;;1.70;0.70;;;11.60;72.20;;;;;;5070794;28;20721;-89
2021/03/27 10:34:46;;;;;;;1.60;0.60;;;11.00;72.20;;;;;;5071770;28;20629;-90
2021/03/27 10:37:24;;;;;;;2.70;0.80;;;10.70;71.80;;;;;;5074038;28;20622;-89
2021/03/27 10:40:11;;;;;;;1.30;0.70;;;11.00;72.10;;;;;;5073871;28;21066;-88
2021/03/27 10:43:01;;;;;;;1.70;0.73;;;11.00;69.50;;;;;;5065094;28;20657;-87
2021/03/27 10:45:45;;;;;;;0.70;0.50;;;11.00;69.50;;;;;;5066686;28;20638;-89
2021/03/27 10:48:45;;;;;;;0.60;0.50;;;11.40;67.10;;;;;;5066576;28;20628;-87
2021/03/27 10:51:34;;;;;;;3.13;2.20;;;12.10;66.10;;;;;;5071926;28;20628;-89
2021/03/27 10:54:32;;;;;;;4.60;0.80;;;12.30;63.00;;;;;;5066282;28;20635;-89
2021/03/27 10:57:08;;;;;;;1.67;0.60;;;12.40;62.30;;;;;;5063843;28;20661;-90
2021/03/27 10:59:39;;;;;;;0.73;0.60;;;12.90;61.10;;;;;;5053220;28;20632;-88
2021/03/27 11:02:45;;;;;;;0.70;0.60;;;13.00;61.40;;;;;;5054460;28;20660;-89
2021/03/27 11:05:37;;;;;;;0.90;0.77;;;13.40;59.50;;;;;;5051099;28;21439;-89
2021/03/27 11:08:43;;;;;;;1.00;0.70;;;13.80;59.60;;;;;;5049181;28;20630;-88
2021/03/27 11:12:03;;;;;;;1.17;0.80;;;13.90;57.70;;;;;;5051137;28;20970;-89
2021/03/27 11:15:01;;;;;;;1.10;0.53;;;13.80;57.00;;;;;;5049176;28;21134;-89
2021/03/27 11:18:07;;;;;;;2.53;0.80;;;13.60;57.10;;;;;;5036124;28;20632;-87
2021/03/27 11:20:50;;;;;;;1.77;0.63;;;14.20;54.80;;;;;;5052997;28;20634;-88
2021/03/27 11:23:52;;;;;;;0.90;0.73;;;14.60;55.60;;;;;;5056396;28;20649;-88
2021/03/27 11:26:41;;;;;;;2.37;0.90;;;13.20;55.30;;;;;;5018452;28;20665;-87
2021/03/27 11:29:27;;;;;;;2.20;0.70;;;12.90;56.80;;;;;;5049440;28;21144;-89
2021/03/27 11:32:09;;;;;;;4.40;1.00;;;13.20;56.90;;;;;;5052234;28;21210;-88
2021/03/27 11:34:43;;;;;;;2.27;1.37;;;13.40;56.50;;;;;;5050622;28;20643;-89
2021/03/27 11:37:33;;;;;;;3.00;1.30;;;13.10;57.60;;;;;;5049504;28;21153;-88
2021/03/27 11:40:06;;;;;;;1.30;0.93;;;13.50;56.90;;;;;;5046731;28;21290;-87
2021/03/27 11:42:40;;;;;;;6.23;1.00;;;12.90;57.60;;;;;;5049329;28;20637;-88
2021/03/27 11:45:11;;;;;;;2.67;0.90;;;13.40;57.00;;;;;;5045072;28;20621;-88
2021/03/27 11:47:55;;;;;;;5.23;0.90;;;14.20;56.90;;;;;;5049374;28;20624;-88
2021/03/27 11:50:57;;;;;;;5.50;1.73;;;15.20;56.20;;;;;;5048166;28;20621;-88
2021/03/27 11:53:36;;;;;;;1.87;0.90;;;15.10;53.80;;;;;;5049291;28;20852;-88
2021/03/27 11:56:08;;;;;;;1.73;0.70;;;14.90;55.60;;;;;;5046669;28;20638;-89
2021/03/27 11:59:42;;;;;;;1.37;0.67;;;14.50;55.30;;;;;;5046197;28;20772;-89
2021/03/27 12:01:32;;;;;;;2.07;0.97;;;13.90;55.30;;;;;;5040929;28;20985;-88
2021/03/27 12:04:22;;;;;;;1.50;0.77;;;12.70;55.20;;;;;;5039421;28;20707;-89
2021/03/27 12:07:01;;;;;;;2.93;0.90;;;12.70;55.90;;;;;;5043857;28;20676;-87
2021/03/27 12:09:43;;;;;;;2.10;0.70;;;12.50;57.10;;;;;;5044850;28;20652;-87
2021/03/27 12:12:24;;;;;;;1.10;0.80;;;12.10;59.50;;;;;;5046168;28;21235;-87
2021/03/27 12:14:55;;;;;;;5.17;2.60;;;11.70;58.80;;;;;;5059923;28;20630;-89
2021/03/27 12:17:35;;;;;;;1.83;1.13;;;11.80;59.90;;;;;;5051615;28;20664;-87
2021/03/27 12:20:34;;;;;;;2.10;1.00;;;11.60;60.70;;;;;;5051220;28;20625;-88
2021/03/27 12:23:20;;;;;;;2.20;1.10;;;11.50;59.70;;;;;;5011668;28;21244;-87
2021/03/27 12:26:23;;;;;;;1.83;0.70;;;11.40;59.70;;;;;;5046841;28;20657;-87
2021/03/27 12:29:01;;;;;;;2.20;0.87;;;11.30;60.10;;;;;;5045822;28;20641;-88
2021/03/27 12:31:48;;;;;;;2.50;1.10;;;11.60;59.50;;;;;;5045110;28;20989;-89
2021/03/27 12:34:24;;;;;;;1.57;0.70;;;11.60;60.40;;;;;;5050231;28;21012;-88
2021/03/27 12:37:04;;;;;;;3.40;1.17;;;11.50;60.60;;;;;;5049984;28;20652;-88
2021/03/27 12:39:50;;;;;;;1.77;0.90;;;11.70;60.70;;;;;;5048804;28;20958;-88
2021/03/27 12:42:19;;;;;;;1.23;0.97;;;11.90;60.50;;;;;;5051169;28;20676;-88
2021/03/27 12:44:55;;;;;;;2.73;0.70;;;11.90;60.00;;;;;;5052314;28;20660;-88
2021/03/27 12:47:43;;;;;;;3.33;1.30;;;11.80;59.80;;;;;;5044738;28;20630;-89
2021/03/27 12:50:34;;;;;;;3.50;1.50;;;11.50;60.20;;;;;;5047386;28;20624;-88
2021/03/27 12:53:28;;;;;;;1.40;1.30;;;11.30;60.40;;;;;;5046148;28;21252;-88
2021/03/27 12:56:09;;;;;;;3.40;1.00;;;12.00;59.50;;;;;;5047478;28;21251;-89
2021/03/27 12:58:46;;;;;;;2.63;1.30;;;11.80;59.10;;;;;;5045481;28;20680;-87
2021/03/27 13:01:43;;;;;;;3.33;1.00;;;11.90;60.30;;;;;;5039220;28;20629;-89
2021/03/27 13:04:52;;;;;;;1.40;1.20;;;12.00;60.40;;;;;;5050970;28;20622;-89
2021/03/27 13:07:28;;;;;;;1.63;0.90;;;12.00;59.50;;;;;;5037187;28;21021;-87
2021/03/27 13:10:33;;;;;;;2.83;0.70;;;11.80;58.30;;;;;;5041476;28;20641;-87
2021/03/27 13:13:29;;;;;;;1.83;1.00;;;11.70;58.50;;;;;;5044594;28;20688;-87
2021/03/27 13:16:09;;;;;;;2.50;0.90;;;11.90;58.00;;;;;;5027786;28;20688;-88
2021/03/27 13:18:59;;;;;;;1.40;0.70;;;11.90;57.00;;;;;;5046229;28;21252;-88
2021/03/27 13:21:48;;;;;;;1.77;0.90;;;12.80;57.40;;;;;;5033290;28;20624;-89
2021/03/27 13:24:19;;;;;;;2.13;1.13;;;14.00;55.00;;;;;;5042800;28;21176;-87
2021/03/27 13:26:47;;;;;;;1.43;0.60;;;14.70;53.90;;;;;;5041875;28;20646;-87
2021/03/27 13:29:34;;;;;;;3.40;1.20;;;15.20;51.80;;;;;;5054164;28;21192;-87
2021/03/27 13:32:10;;;;;;;2.13;1.00;;;14.60;51.60;;;;;;5050718;28;21232;-88
2021/03/27 13:34:43;;;;;;;4.03;1.63;;;13.60;52.50;;;;;;5048691;28;20657;-88
2021/03/27 13:37:13;;;;;;;3.17;0.80;;;13.80;52.90;;;;;;5056504;28;20717;-88
2021/03/27 13:39:44;;;;;;;1.53;0.60;;;14.20;53.90;;;;;;5048333;28;20637;-88
2021/03/27 13:42:37;;;;;;;2.50;0.90;;;13.80;53.30;;;;;;5044379;28;20739;-87
2021/03/27 13:45:22;;;;;;;1.97;0.70;;;13.40;54.30;;;;;;5044373;28;21261;-87
2021/03/27 13:47:55;;;;;;;1.03;0.90;;;13.60;54.80;;;;;;5044669;28;20648;-87
2021/03/27 13:50:45;;;;;;;2.40;0.77;;;13.90;55.20;;;;;;5044889;28;21208;-88
2021/03/27 13:53:35;;;;;;;2.70;0.90;;;14.80;53.60;;;;;;5049487;28;21264;-87
2021/03/27 13:56:16;;;;;;;1.80;0.77;;;15.10;52.00;;;;;;5045006;28;20636;-87
2021/03/27 13:58:57;;;;;;;1.67;0.90;;;16.00;51.20;;;;;;5045656;28;20625;-88
2021/03/27 14:01:29;;;;;;;1.17;0.97;;;16.20;51.10;;;;;;5047789;28;20629;-89
2021/03/27 14:04:12;;;;;;;1.70;0.80;;;16.80;50.40;;;;;;5048521;28;20982;-89
2021/03/27 14:06:48;;;;;;;2.30;0.87;;;16.90;48.50;;;;;;5046615;28;20666;-88
2021/03/27 14:09:32;;;;;;;1.63;0.90;;;17.00;48.80;;;;;;5048255;28;20586;-88
2021/03/27 14:12:04;;;;;;;4.00;1.33;;;17.80;48.50;;;;;;5055265;28;20637;-88
2021/03/27 14:14:36;;;;;;;3.30;1.37;;;17.70;48.00;;;;;;5051717;28;20617;-88
2021/03/27 14:17:07;;;;;;;2.80;1.30;;;17.40;47.20;;;;;;5048286;28;20699;-87